Nearby METAR Reports

 

KDPA - Chicago/Dupage, Illinois, USA
Distance from station: ESE 9mi, 15km
Updated: Mon, 18-Nov-2019 7:52pm CST
Overcast
Overcast
 Wind from SW
Wind: SW 7 mph , 11 km/h
Temperature: 36°F , 2°C
Wind Chill: 30°F , -1°C
Dew Point: 30°F , -1°C
Humidity: 81%
Barometer: 29.75 inHg , 1007.5 hPa
Clouds: Overcast
Visibility: 10 miles , 16 km
Cloud details: Overcast 1100 ft
2019/11/19 01:52 KDPA 190152Z 23006KT 10SM OVC011 02/M01 A2975 RMK AO2 SLP082 T00171006
KARR - Chicago/Aurora, Illinois, USA
Distance from station: SSW 14mi, 22km
Updated: Mon, 18-Nov-2019 7:52pm CST
Overcast
Overcast
 Wind from calm
Wind: Calm
Temperature: 36°F , 2°C
Dew Point: 30°F , -1°C
Humidity: 81%
Barometer: 29.76 inHg , 1007.8 hPa
Clouds: Overcast
Visibility: 9 miles , 14 km
Cloud details: Overcast 1300 ft
2019/11/19 01:52 KARR 190152Z 00000KT 9SM OVC013 02/M01 A2976 RMK AO2 SLP082 T00221006
 
KDKB - De Kalb, Illinois, USA
Distance from station: W 14mi, 23km
Updated: Mon, 18-Nov-2019 7:55pm CST
Overcast
Overcast
 Wind from calm
Wind: Calm
Temperature: 34°F , 1°C
Dew Point: 32°F , 0°C
Humidity: 93%
Barometer: 29.76 inHg , 1007.8 hPa
Clouds: Overcast
Visibility: 10 miles , 16 km
Cloud details: Overcast 800 ft
2019/11/19 01:55 KDKB 190155Z AUTO 00000KT 10SM OVC008 01/00 A2976 RMK AO2 T00120003
KORD - Chicago O'hare, Illinois, USA
Distance from station: E 25mi, 41km
Updated: Mon, 18-Nov-2019 7:51pm CST
Overcast
Overcast
 Wind from W
Wind: W 3 mph , 6 km/h
Temperature: 36°F , 2°C
Dew Point: 32°F , 0°C
Humidity: 87%
Barometer: 29.76 inHg , 1007.8 hPa
Clouds: Overcast
Visibility: 10 miles , 16 km
Cloud details: Overcast 1600 ft
2019/11/19 01:51 KORD 190151Z 26003KT 10SM OVC016 02/00 A2976 RMK AO2 SLP083 T00220000
 
KPWK - Palwaukee, Illinois, USA
Distance from station: ENE 29mi, 47km
Updated: Mon, 18-Nov-2019 7:52pm CST
Overcast
Overcast
 Wind from WSW
Wind: WSW 6 mph , 9 km/h
Temperature: 37°F , 3°C
Wind Chill: 32°F , 0°C
Dew Point: 30°F , -1°C
Humidity: 75%
Barometer: 29.78 inHg , 1008.5 hPa
Clouds: Overcast
Visibility: 10 miles , 16 km
Cloud details: Overcast 2000 ft
2019/11/19 01:52 KPWK 190152Z 25005KT 10SM OVC020 03/M01 A2978 RMK AO2 SLP088 T00331006
KLOT - Romeoville/Chi, Illinois, USA
Distance from station: SE 30mi, 48km
Updated: Mon, 18-Nov-2019 7:55pm CST
Overcast
Overcast
 Wind from WSW
Wind: WSW 7 mph , 11 km/h
Temperature: 36°F , 2°C
Wind Chill: 30°F , -1°C
Dew Point: 32°F , 0°C
Humidity: 87%
Barometer: 29.78 inHg , 1008.5 hPa
Clouds: Overcast
Visibility: 10 miles , 16 km
Cloud details: Overcast 1400 ft
2019/11/19 01:55 KLOT 190155Z AUTO 25006KT 10SM OVC014 02/00 A2978 RMK AO2 T00200001
 
KJOT - Joliet, Illinois, USA
Distance from station: SSE 33mi, 53km
Updated: Mon, 18-Nov-2019 7:55pm CST
Overcast
Overcast
 Wind from calm
Wind: Calm
Temperature: 37°F , 3°C
Dew Point: 36°F , 2°C
Humidity: 93%
Barometer: 29.78 inHg , 1008.5 hPa
Clouds: Overcast
Visibility: 10 miles , 16 km
Cloud details: Overcast 1500 ft
2019/11/19 01:55 KJOT 190155Z AUTO 00000KT 10SM OVC015 03/02 A2978 RMK AO2 T00300017
KRPJ - Rochelle/Koritz, Illinois, USA
Distance from station: W 34mi, 55km
Updated: Mon, 18-Nov-2019 7:55pm CST
Overcast
Overcast
 Wind from calm
Wind: Calm
Temperature: 34°F , 1°C
Dew Point: 32°F , 0°C
Humidity: 93%
Barometer: 29.77 inHg , 1008.1 hPa
Clouds: Overcast
Visibility: 10 miles , 16 km
Cloud details: Overcast 800 ft
2019/11/19 01:55 KRPJ 190155Z AUTO 00000KT 10SM OVC008 01/00 A2977 RMK AO2 T00070002
 
KC09 - Morris-Washburn, Illinois, USA
Distance from station: S 36mi, 59km
Updated: Mon, 18-Nov-2019 7:55pm CST
Overcast
Overcast
 Wind from calm
Wind: Calm
Temperature: 36°F , 2°C
Dew Point: 36°F , 2°C
Humidity: 100%
Barometer: 29.76 inHg , 1007.8 hPa
Clouds: Overcast
Visibility: 10 miles , 16 km
Cloud details: Overcast 1500 ft
2019/11/19 01:55 KC09 190155Z AUTO 00000KT 10SM OVC015 02/02 A2976 RMK AO2 T00220017
KMDW - Chicago, Illinois, USA
Distance from station: ESE 37mi, 59km
Updated: Mon, 18-Nov-2019 7:53pm CST
Overcast
Overcast
 Wind from WSW
Wind: WSW 7 mph , 11 km/h
Temperature: 37°F , 3°C
Wind Chill: 32°F , 0°C
Dew Point: 32°F , 0°C
Humidity: 81%
Barometer: 29.77 inHg , 1008.1 hPa
Clouds: Overcast
Visibility: 9 miles , 14 km
Cloud details: Overcast 2400 ft
2019/11/19 01:53 KMDW 190153Z 24006KT 9SM OVC024 03/00 A2977 RMK AO2 SLP090 T00330000 $
 
KRFD - Rockford, Illinois, USA
Distance from station: WNW 38mi, 62km
Updated: Mon, 18-Nov-2019 7:54pm CST
Overcast
Overcast
 Wind from SSW
Wind: SSW 5 mph , 7 km/h
Temperature: 36°F , 2°C
Wind Chill: 32°F , 0°C
Dew Point: 32°F , 0°C
Humidity: 87%
Barometer: 29.77 inHg , 1008.1 hPa
Clouds: Overcast
Visibility: 9 miles , 14 km
Cloud details: Overcast 900 ft
2019/11/19 01:54 KRFD 190154Z 21004KT 9SM OVC009 02/00 A2977 RMK AO2 SLP089 T00170000
KUGN - Waukegan, Illinois, USA
Distance from station: NE 42mi, 68km
Updated: Mon, 18-Nov-2019 7:55pm CST
Overcast
Overcast
 Wind from calm
Wind: Calm
Temperature: 37°F , 3°C
Dew Point: 30°F , -1°C
Humidity: 75%
Barometer: 29.75 inHg , 1007.5 hPa
Clouds: Overcast
Visibility: 10 miles , 16 km
Cloud details: Overcast 1900 ft
2019/11/19 01:55 KUGN 190155Z 00000KT 10SM OVC019 03/M01 A2975 RMK AO2 SLP084 LAST T00281011
 
KBUU - Burlington, Wisconsin, USA
Distance from station: N 50mi, 81km
Updated: Mon, 18-Nov-2019 7:55pm CST
Overcast
Overcast
 Wind from calm
Wind: Calm
Temperature: 32°F , 0°C
Dew Point: 30°F , -1°C
Humidity: 93%
Barometer: 29.75 inHg , 1007.5 hPa
Clouds: Overcast
Visibility: 10 miles , 16 km
Cloud details: Overcast 1500 ft
2019/11/19 01:55 KBUU 190155Z AUTO 00000KT 10SM OVC015 00/M01 A2975 RMK AO2 T00011006